Time;durP1;ratioP1;P1;durP2;ratioP2;P2;SDS_P1;SDS_P2;PMS_P1;PMS_P2;Temp;Humidity;BMP_temperature;BMP_pressure;BME280_temperature;BME280_humidity;BME280_pressure;Samples;Min_cycle;Max_cycle;Signal;HPM_P1;HPM_P2
2024/02/28 00:01:26;;;;;;;0.10;0.10;;;;;;;7.01;64.82;102103.31;5115942;28;20027;-78
2024/02/28 00:03:53;;;;;;;0.17;0.17;;;;;;;7.03;64.29;102098.91;5115958;28;20122;-78
2024/02/28 00:06:19;;;;;;;0.32;0.32;;;;;;;7.04;64.23;102101.59;5107358;28;20151;-79
2024/02/28 00:08:46;;;;;;;0.20;0.20;;;;;;;7.05;64.47;102098.09;5096621;28;20024;-77
2024/02/28 00:11:12;;;;;;;0.20;0.20;;;;;;;7.04;63.96;102093.69;5096606;28;20035;-78
2024/02/28 00:13:38;;;;;;;0.75;0.75;;;;;;;7.03;64.26;102089.28;5097423;28;20047;-78
2024/02/28 00:16:05;;;;;;;3.72;1.40;;;;;;;7.03;64.06;102088.38;5097441;28;20083;-79
2024/02/28 00:18:31;;;;;;;0.10;0.10;;;;;;;7.01;64.33;102090.13;5107974;28;20054;-79
2024/02/28 00:20:58;;;;;;;0.10;0.10;;;;;;;6.94;64.39;102090.03;5105576;28;20028;-77
2024/02/28 00:23:25;;;;;;;0.55;0.55;;;;;;;6.91;64.21;102097.88;5100512;28;20024;-80
2024/02/28 00:25:51;;;;;;;0.22;0.22;;;;;;;6.92;64.63;102106.69;5096403;28;20033;-80
2024/02/28 00:28:17;;;;;;;0.22;0.22;;;;;;;6.90;64.12;102093.50;5100773;28;20021;-80
2024/02/28 00:30:43;;;;;;;0.20;0.20;;;;;;;6.86;64.37;102096.06;5103520;28;20498;-80
2024/02/28 00:33:09;;;;;;;1.27;1.27;;;;;;;6.83;64.55;102098.63;5104471;28;20028;-80
2024/02/28 00:35:36;;;;;;;0.10;0.10;;;;;;;6.75;64.51;102094.16;5104252;28;20035;-80
2024/02/28 00:38:02;;;;;;;0.10;0.10;;;;;;;6.71;64.25;102102.84;5103649;28;20027;-79
2024/02/28 00:40:29;;;;;;;0.10;0.10;;;;;;;6.62;65.10;102098.31;5105016;28;20035;-80
2024/02/28 00:42:55;;;;;;;0.10;0.10;;;;;;;6.58;64.85;102100.84;5109729;28;20096;-80
2024/02/28 00:45:21;;;;;;;0.10;0.10;;;;;;;6.51;65.55;102097.25;5101267;28;20028;-79
2024/02/28 00:47:48;;;;;;;0.10;0.10;;;;;;;6.51;64.86;102091.09;5103249;28;20035;-80
2024/02/28 00:50:15;;;;;;;0.10;0.10;;;;;;;6.46;64.92;102096.28;5100419;28;20035;-78
2024/02/28 00:52:41;;;;;;;0.10;0.10;;;;;;;6.38;65.40;102088.25;5097733;28;20499;-78
2024/02/28 00:55:08;;;;;;;0.10;0.10;;;;;;;6.39;65.30;102095.31;5097743;28;20113;-79
2024/02/28 00:57:34;;;;;;;0.10;0.10;;;;;;;6.37;65.59;102099.63;5099751;28;20020;-78
2024/02/28 01:00:00;;;;;;;0.20;0.20;;;;;;;6.35;65.52;102098.72;5099254;28;20067;-78
2024/02/28 01:02:26;;;;;;;0.65;0.65;;;;;;;6.35;65.47;102092.56;5099939;28;20115;-79
2024/02/28 01:04:52;;;;;;;0.10;0.10;;;;;;;6.34;65.82;102093.44;5100028;28;20028;-79
2024/02/28 01:07:19;;;;;;;0.15;0.15;;;;;;;6.32;65.29;102096.03;5105251;28;20040;-79
2024/02/28 01:09:45;;;;;;;0.10;0.10;;;;;;;6.29;66.20;102098.59;5107393;28;20024;-79
2024/02/28 01:12:11;;;;;;;0.10;0.10;;;;;;;6.28;66.00;102102.09;5102233;28;20032;-79
2024/02/28 01:14:37;;;;;;;0.20;0.20;;;;;;;6.24;65.89;102097.63;5101165;28;20039;-79
2024/02/28 01:17:03;;;;;;;0.28;0.28;;;;;;;6.23;65.68;102099.41;5101848;28;20016;-79
2024/02/28 01:19:31;;;;;;;0.20;0.20;;;;;;;6.20;66.08;102094.06;5103036;28;20024;-79
2024/02/28 01:21:57;;;;;;;0.10;0.10;;;;;;;6.17;65.86;102088.75;5107606;28;20050;-79
2024/02/28 01:24:23;;;;;;;0.10;0.10;;;;;;;6.14;66.65;102094.84;5101668;28;20024;-79
2024/02/28 01:26:50;;;;;;;0.20;0.20;;;;;;;6.09;66.75;102101.78;5107621;28;20021;-78
2024/02/28 01:29:17;;;;;;;0.10;0.10;;;;;;;6.09;66.81;102087.72;5097415;28;20556;-77
2024/02/28 01:31:43;;;;;;;0.10;0.10;;;;;;;6.08;66.24;102089.47;5108628;28;20034;-77
2024/02/28 01:34:09;;;;;;;0.10;0.10;;;;;;;6.02;66.60;102084.09;5117600;28;20039;-78
2024/02/28 01:36:35;;;;;;;0.10;0.10;;;;;;;6.00;66.59;102091.06;5126721;28;20028;-79
2024/02/28 01:39:03;;;;;;;0.10;0.10;;;;;;;5.98;66.70;102092.75;5126862;28;20035;-79
2024/02/28 01:41:29;;;;;;;0.35;0.32;;;;;;;5.96;66.71;102094.47;5132428;28;20027;-78
2024/02/28 01:43:55;;;;;;;0.63;0.63;;;;;;;5.96;66.93;102094.47;5134342;28;20024;-78
2024/02/28 01:46:27;;;;;;;0.10;0.10;;;;;;;5.98;67.12;102087.47;5132760;28;20024;-78
2024/02/28 01:48:55;;;;;;;0.10;0.10;;;;;;;5.95;66.68;102082.16;5132756;28;20023;-76
2024/02/28 01:51:23;;;;;;;0.10;0.10;;;;;;;5.91;67.00;102082.97;5132518;27;20091;-77
2024/02/28 01:53:52;;;;;;;0.10;0.10;;;;;;;5.91;67.23;102088.25;5132995;28;20035;-78
2024/02/28 01:56:20;;;;;;;0.10;0.10;;;;;;;5.90;67.14;102078.56;5132843;28;20035;-78
2024/02/28 01:58:48;;;;;;;0.10;0.10;;;;;;;5.93;67.30;102086.50;5124165;27;20034;-77
2024/02/28 02:01:16;;;;;;;0.10;0.10;;;;;;;5.94;66.92;102085.66;5120472;28;20070;-79
2024/02/28 02:03:44;;;;;;;0.10;0.10;;;;;;;5.96;66.93;102084.81;5117073;28;20031;-77
2024/02/28 02:06:11;;;;;;;0.10;0.10;;;;;;;6.01;67.35;102087.59;5117480;28;20061;-78
2024/02/28 02:08:38;;;;;;;0.10;0.10;;;;;;;6.07;67.29;102079.81;5116861;28;20027;-78
2024/02/28 02:11:06;;;;;;;0.10;0.10;;;;;;;6.12;67.40;102088.66;5119089;28;20104;-78
2024/02/28 02:13:32;;;;;;;0.10;0.10;;;;;;;6.15;67.21;102080.81;5121763;28;20027;-78
2024/02/28 02:15:58;;;;;;;0.10;0.10;;;;;;;6.21;67.41;102073.91;5121009;28;20394;-78
2024/02/28 02:18:25;;;;;;;0.10;0.10;;;;;;;6.22;67.62;102075.66;5120975;28;20049;-78
2024/02/28 02:20:58;;;;;;;0.43;0.43;;;;;;;6.26;67.71;102078.38;5121113;28;20509;-78
2024/02/28 02:23:25;;;;;;;0.93;0.85;;;;;;;6.28;67.87;102081.03;5120651;28;20028;-78
2024/02/28 02:25:51;;;;;;;0.10;0.10;;;;;;;6.31;67.59;102076.72;5107550;28;20082;-78
2024/02/28 02:28:17;;;;;;;0.20;0.20;;;;;;;6.37;67.55;102081.22;5100913;28;20024;-78
2024/02/28 02:30:43;;;;;;;0.10;0.10;;;;;;;6.39;67.23;102076.88;5108200;28;20482;-78
2024/02/28 02:33:09;;;;;;;0.22;0.22;;;;;;;6.43;67.58;102086.59;5100671;28;20040;-79
2024/02/28 02:35:36;;;;;;;0.20;0.20;;;;;;;6.46;67.73;102078.72;5099694;28;20059;-78
2024/02/28 02:38:02;;;;;;;0.10;0.10;;;;;;;6.46;67.49;102081.34;5099409;28;20035;-78
2024/02/28 02:40:29;;;;;;;0.10;0.10;;;;;;;6.54;67.45;102089.41;5094591;28;20027;-77
2024/02/28 02:42:55;;;;;;;0.32;0.32;;;;;;;6.56;67.20;102092.94;5095102;28;20063;-77
2024/02/28 02:45:21;;;;;;;0.10;0.10;;;;;;;6.60;67.04;102094.78;5094771;28;20024;-77
2024/02/28 02:47:47;;;;;;;0.30;0.30;;;;;;;6.62;67.74;102089.53;5095362;28;20032;-78
2024/02/28 02:50:14;;;;;;;0.10;0.10;;;;;;;6.62;67.22;102087.78;5094900;28;20036;-78
2024/02/28 02:52:40;;;;;;;0.20;0.20;;;;;;;6.66;67.61;102083.44;5096441;28;20028;-77
2024/02/28 02:55:07;;;;;;;0.47;0.47;;;;;;;6.69;67.33;102080.88;5095525;28;20107;-77
2024/02/28 02:57:35;;;;;;;0.55;0.52;;;;;;;6.69;67.03;102072.97;5096202;28;20444;-77
2024/02/28 03:00:02;;;;;;;0.20;0.20;;;;;;;6.67;67.43;102074.69;5096608;28;20032;-77
2024/02/28 03:02:29;;;;;;;0.80;0.80;;;;;;;6.62;67.77;102076.38;5095399;28;20020;-77
2024/02/28 03:04:55;;;;;;;0.20;0.20;;;;;;;6.70;67.23;102074.72;5095004;28;20429;-77
2024/02/28 03:07:22;;;;;;;0.20;0.20;;;;;;;6.69;67.60;102077.34;5095394;28;20089;-77
2024/02/28 03:09:48;;;;;;;0.20;0.20;;;;;;;6.62;67.41;102071.97;5095810;28;20031;-78
2024/02/28 03:12:14;;;;;;;0.10;0.10;;;;;;;6.62;67.43;102077.22;5100294;28;20028;-77
2024/02/28 03:14:40;;;;;;;0.20;0.20;;;;;;;6.63;67.66;102075.50;5101046;28;20024;-77
2024/02/28 03:17:07;;;;;;;0.20;0.20;;;;;;;6.62;68.08;102076.38;5103826;28;20479;-78
2024/02/28 03:19:35;;;;;;;0.10;0.10;;;;;;;6.55;68.26;102085.00;5108192;28;20039;-78
2024/02/28 03:22:02;;;;;;;0.10;0.10;;;;;;;6.68;67.82;102075.56;5100519;28;20028;-79
2024/02/28 03:24:29;;;;;;;0.10;0.10;;;;;;;6.64;67.97;102071.97;5099983;28;20040;-79
2024/02/28 03:26:55;;;;;;;0.82;0.82;;;;;;;6.74;67.49;102075.66;5099732;28;20028;-79
2024/02/28 03:29:21;;;;;;;0.30;0.30;;;;;;;6.77;68.13;102076.59;5098812;28;20028;-79
2024/02/28 03:31:47;;;;;;;0.20;0.20;;;;;;;6.77;68.43;102075.72;5099034;28;20032;-79
2024/02/28 03:34:14;;;;;;;0.13;0.13;;;;;;;6.86;68.16;102069.72;5099613;28;20039;-79
2024/02/28 03:36:40;;;;;;;0.10;0.10;;;;;;;6.83;68.60;102069.63;5108296;28;20051;-79
2024/02/28 03:39:06;;;;;;;1.02;0.95;;;;;;;6.83;68.08;102069.63;5099934;28;20035;-79
2024/02/28 03:41:32;;;;;;;0.10;0.10;;;;;;;6.80;68.29;102066.13;5098659;28;20059;-79
2024/02/28 03:43:58;;;;;;;0.30;0.30;;;;;;;6.80;68.44;102071.38;5095977;28;20032;-78
2024/02/28 03:46:25;;;;;;;1.27;0.85;;;;;;;6.80;68.67;102066.13;5094924;28;20552;-78
2024/02/28 03:48:51;;;;;;;0.30;0.30;;;;;;;6.88;68.81;102063.59;5097147;28;20051;-79
2024/02/28 03:51:17;;;;;;;0.10;0.10;;;;;;;6.93;68.70;102066.31;5107321;28;20040;-78
2024/02/28 03:53:43;;;;;;;0.10;0.10;;;;;;;6.91;69.02;102073.28;5110006;28;20033;-77
2024/02/28 03:56:09;;;;;;;0.10;0.10;;;;;;;6.97;69.01;102073.38;5114507;28;20417;-77
2024/02/28 03:58:36;;;;;;;0.20;0.20;;;;;;;7.02;68.70;102070.81;5115255;28;20035;-77
2024/02/28 04:01:03;;;;;;;0.22;0.22;;;;;;;7.05;68.62;102061.22;5115102;28;20051;-77
2024/02/28 04:03:29;;;;;;;0.10;0.10;;;;;;;7.05;68.71;102066.50;5115556;28;20035;-78
2024/02/28 04:05:56;;;;;;;0.95;0.88;;;;;;;7.13;68.89;102064.81;5115414;28;20092;-78
2024/02/28 04:08:22;;;;;;;0.10;0.10;;;;;;;7.06;68.92;102062.09;5114022;28;20038;-78
2024/02/28 04:10:50;;;;;;;0.20;0.20;;;;;;;7.13;68.30;102069.22;5100856;28;20088;-78
2024/02/28 04:13:16;;;;;;;0.20;0.20;;;;;;;7.18;69.03;102074.53;5094616;28;20028;-78
2024/02/28 04:15:45;;;;;;;0.10;0.10;;;;;;;7.11;68.82;102077.09;5093680;28;20121;-78
2024/02/28 04:18:11;;;;;;;1.00;1.00;;;;;;;7.18;68.71;102078.06;5094737;28;20036;-78
2024/02/28 04:20:38;;;;;;;0.10;0.10;;;;;;;7.23;69.06;102063.22;5094648;28;20030;-78
2024/02/28 04:23:04;;;;;;;0.20;0.20;;;;;;;7.23;68.98;102060.56;5094612;28;20035;-78
2024/02/28 04:25:31;;;;;;;2.45;1.38;;;;;;;7.22;68.83;102079.00;5094067;28;20548;-78
2024/02/28 04:27:57;;;;;;;0.10;0.10;;;;;;;7.28;68.90;102068.53;5102776;28;20036;-78
2024/02/28 04:30:23;;;;;;;0.15;0.15;;;;;;;7.24;69.07;102078.16;5094552;28;20031;-78
2024/02/28 04:32:49;;;;;;;0.10;0.10;;;;;;;7.29;68.81;102080.88;5094124;28;20035;-77
2024/02/28 04:35:18;;;;;;;2.08;0.82;;;;;;;7.36;68.81;102081.81;5093966;28;20107;-78
2024/02/28 04:37:46;;;;;;;0.65;0.50;;;;;;;7.39;68.36;102103.84;5103163;28;20032;-78
2024/02/28 04:40:12;;;;;;;0.73;0.73;;;;;;;7.36;68.69;102095.88;5093569;28;20028;-78
2024/02/28 04:42:39;;;;;;;0.10;0.10;;;;;;;7.39;68.45;102102.94;5097655;28;20040;-79
2024/02/28 04:45:06;;;;;;;0.15;0.15;;;;;;;7.45;68.37;102108.31;5097292;28;20052;-79
2024/02/28 04:47:32;;;;;;;0.10;0.10;;;;;;;7.40;68.01;102105.63;5098403;28;20055;-79
2024/02/28 04:49:58;;;;;;;0.13;0.13;;;;;;;7.47;68.44;102110.97;5098513;28;20109;-78
2024/02/28 04:52:24;;;;;;;0.20;0.20;;;;;;;7.49;68.00;102098.69;5095782;28;20513;-79
2024/02/28 04:54:51;;;;;;;0.15;0.15;;;;;;;7.46;68.42;102107.44;5092455;28;20435;-79
2024/02/28 04:57:17;;;;;;;0.17;0.17;;;;;;;7.47;68.55;102116.25;5092611;28;20047;-78
2024/02/28 04:59:45;;;;;;;0.10;0.10;;;;;;;7.55;68.26;102104.94;5092621;28;20032;-78
2024/02/28 05:02:11;;;;;;;0.22;0.22;;;;;;;7.56;68.41;102106.72;5093391;28;20098;-78
2024/02/28 05:04:37;;;;;;;0.20;0.20;;;;;;;7.58;68.53;102101.47;5096087;28;20114;-78
2024/02/28 05:07:03;;;;;;;0.25;0.25;;;;;;;7.59;67.90;102098.81;5102154;28;20032;-79
2024/02/28 05:09:29;;;;;;;0.20;0.20;;;;;;;7.57;68.16;102094.41;5097789;28;20036;-79
2024/02/28 05:11:55;;;;;;;0.10;0.10;;;;;;;7.60;68.03;102092.69;5098488;28;20052;-79
2024/02/28 05:14:22;;;;;;;0.10;0.10;;;;;;;7.66;68.42;102094.50;5100790;28;20027;-79
2024/02/28 05:16:48;;;;;;;0.10;0.10;;;;;;;7.66;68.01;102091.88;5101812;28;20151;-79
2024/02/28 05:19:17;;;;;;;0.85;0.82;;;;;;;7.68;68.07;102100.69;5101607;28;20759;-79
2024/02/28 05:21:44;;;;;;;0.20;0.20;;;;;;;7.70;68.00;102096.34;5109506;28;20032;-79
2024/02/28 05:24:10;;;;;;;0.38;0.38;;;;;;;7.68;68.58;102094.53;5101802;28;20032;-79
2024/02/28 05:26:37;;;;;;;0.10;0.10;;;;;;;7.70;68.12;102098.06;5109328;28;20028;-79
2024/02/28 05:29:05;;;;;;;0.68;0.68;;;;;;;7.68;68.21;102094.53;5101170;28;20111;-79
2024/02/28 05:31:32;;;;;;;0.60;0.60;;;;;;;7.69;68.90;102098.94;5102221;28;20032;-78
2024/02/28 05:33:59;;;;;;;0.15;0.15;;;;;;;7.70;68.53;102091.06;5102291;28;20032;-79
2024/02/28 05:36:28;;;;;;;0.52;0.52;;;;;;;7.71;69.04;102095.47;5101684;28;20483;-80
2024/02/28 05:38:56;;;;;;;0.10;0.10;;;;;;;7.70;69.17;102088.41;5107802;28;20035;-80
2024/02/28 05:41:23;;;;;;;0.45;0.45;;;;;;;7.72;68.40;102091.94;5113723;28;20060;-79
2024/02/28 05:43:50;;;;;;;0.10;0.10;;;;;;;7.73;69.00;102093.72;5103675;28;20032;-80
2024/02/28 05:46:17;;;;;;;0.30;0.30;;;;;;;7.75;69.06;102092.00;5101943;28;20144;-79
2024/02/28 05:48:45;;;;;;;0.73;0.73;;;;;;;7.80;69.09;102101.69;5114627;28;20118;-79
2024/02/28 05:51:13;;;;;;;0.47;0.47;;;;;;;7.84;68.45;102103.50;5122161;28;20020;-79
2024/02/28 05:53:40;;;;;;;0.13;0.13;;;;;;;7.85;68.56;102103.53;5122375;28;20047;-79
2024/02/28 05:56:13;;;;;;;0.17;0.17;;;;;;;7.85;68.33;102106.19;5121356;28;20032;-79
2024/02/28 05:58:41;;;;;;;0.10;0.10;;;;;;;7.88;68.30;102103.56;5121301;28;20465;-79
2024/02/28 06:01:08;;;;;;;0.43;0.43;;;;;;;7.88;68.49;102102.69;5112900;28;20039;-79
2024/02/28 06:03:34;;;;;;;0.63;0.63;;;;;;;7.89;68.35;102093.91;5094958;28;20387;-79
2024/02/28 06:06:00;;;;;;;0.10;0.10;;;;;;;7.86;68.65;102096.50;5094486;28;20035;-78
2024/02/28 06:08:27;;;;;;;0.32;0.30;;;;;;;7.90;69.11;102095.66;5095306;28;20444;-78
2024/02/28 06:10:53;;;;;;;0.20;0.20;;;;;;;7.89;68.59;102104.47;5095653;28;20495;-78
2024/02/28 06:13:19;;;;;;;0.20;0.20;;;;;;;7.90;68.93;102096.56;5095505;28;20043;-78
2024/02/28 06:15:45;;;;;;;0.50;0.50;;;;;;;7.93;69.04;102100.97;5095068;28;20051;-78
2024/02/28 06:18:12;;;;;;;0.20;0.20;;;;;;;7.89;69.39;102104.47;5096185;28;20051;-77
2024/02/28 06:20:38;;;;;;;0.20;0.20;;;;;;;7.90;69.42;102093.00;5097035;28;20115;-79
2024/02/28 06:23:04;;;;;;;0.32;0.32;;;;;;;7.94;69.32;102103.63;5098605;28;20031;-78
2024/02/28 06:25:33;;;;;;;0.20;0.20;;;;;;;7.93;69.10;102108.91;5097195;28;20062;-78
2024/02/28 06:28:01;;;;;;;0.22;0.22;;;;;;;7.91;68.87;102114.16;5098054;28;20032;-78
2024/02/28 06:30:28;;;;;;;0.20;0.20;;;;;;;7.90;69.67;102127.31;5097703;28;20028;-79
2024/02/28 06:32:54;;;;;;;0.95;0.95;;;;;;;7.92;69.01;102115.03;5097932;28;20020;-78
2024/02/28 06:35:21;;;;;;;15.07;1.48;;;;;;;7.88;69.35;102118.53;5098006;28;20039;-78
2024/02/28 06:37:49;;;;;;;4.80;0.90;;;;;;;7.93;68.99;102127.38;5097762;28;20097;-77
2024/02/28 06:40:16;;;;;;;0.30;0.30;;;;;;;7.95;69.23;102130.94;5096792;28;20058;-79
2024/02/28 06:42:42;;;;;;;0.20;0.20;;;;;;;7.90;69.58;102137.88;5095916;28;20039;-78
2024/02/28 06:45:09;;;;;;;0.20;0.20;;;;;;;7.91;69.47;102150.22;5096155;28;20024;-78
2024/02/28 06:47:36;;;;;;;0.10;0.10;;;;;;;7.95;69.13;102152.03;5096525;28;20039;-79
2024/02/28 06:50:03;;;;;;;0.75;0.75;;;;;;;7.98;69.45;102152.06;5097012;28;20051;-79
2024/02/28 06:52:30;;;;;;;0.10;0.10;;;;;;;7.98;69.96;102149.44;5098579;28;20077;-79
2024/02/28 06:54:57;;;;;;;0.50;0.50;;;;;;;8.00;69.19;102155.63;5099494;28;20083;-78
2024/02/28 06:57:23;;;;;;;0.20;0.20;;;;;;;8.01;69.85;102152.13;5109470;28;20039;-77
2024/02/28 06:59:49;;;;;;;0.10;0.10;;;;;;;8.03;69.59;102152.13;5111385;28;20034;-78
2024/02/28 07:02:15;;;;;;;0.13;0.13;;;;;;;8.04;70.05;102151.25;5110464;28;20032;-78
2024/02/28 07:04:42;;;;;;;0.30;0.30;;;;;;;8.05;69.32;102148.63;5110174;28;20020;-79
2024/02/28 07:07:08;;;;;;;0.10;0.10;;;;;;;8.09;69.99;102144.28;5109887;28;20032;-78
2024/02/28 07:09:37;;;;;;;0.35;0.35;;;;;;;8.09;70.25;102150.44;5111055;28;20031;-78
2024/02/28 07:12:04;;;;;;;0.90;0.90;;;;;;;8.15;70.09;102151.38;5122708;28;20054;-78
2024/02/28 07:14:30;;;;;;;0.10;0.10;;;;;;;8.16;69.80;102153.13;5135175;28;20024;-78
2024/02/28 07:16:56;;;;;;;0.20;0.20;;;;;;;8.18;69.56;102151.41;5121125;28;20032;-79
2024/02/28 07:19:22;;;;;;;0.10;0.10;;;;;;;8.16;69.40;102158.41;5121686;28;20031;-79
2024/02/28 07:21:49;;;;;;;0.73;0.73;;;;;;;8.12;70.36;102164.53;5121123;28;20023;-80
2024/02/28 07:24:15;;;;;;;0.20;0.20;;;;;;;8.09;70.31;102161.00;5119571;28;20050;-79
2024/02/28 07:26:41;;;;;;;0.10;0.10;;;;;;;8.17;69.66;102162.84;5119094;28;20085;-78
2024/02/28 07:29:08;;;;;;;0.10;0.10;;;;;;;8.09;70.09;102166.28;5119646;28;20053;-78
2024/02/28 07:31:34;;;;;;;0.38;0.38;;;;;;;8.17;70.16;102165.47;5120613;28;20057;-79
2024/02/28 07:34:00;;;;;;;0.70;0.70;;;;;;;8.22;70.30;102167.31;5120043;28;20076;-79
2024/02/28 07:36:26;;;;;;;0.28;0.28;;;;;;;8.24;70.45;102168.19;5119558;28;20053;-78
2024/02/28 07:38:53;;;;;;;0.20;0.20;;;;;;;8.30;70.12;102167.38;5119956;28;20115;-79
2024/02/28 07:41:19;;;;;;;0.20;0.20;;;;;;;8.37;70.38;102166.59;5120131;28;20034;-78
2024/02/28 07:43:46;;;;;;;0.17;0.17;;;;;;;8.41;70.66;102176.31;5119612;28;20027;-79
2024/02/28 07:46:12;;;;;;;0.25;0.25;;;;;;;8.49;70.60;102172.91;5119498;28;20055;-78
2024/02/28 07:48:39;;;;;;;0.75;0.75;;;;;;;8.54;70.49;102173.84;5119802;28;20024;-78
2024/02/28 07:51:06;;;;;;;0.50;0.50;;;;;;;8.51;70.43;102184.34;5119494;28;20036;-78
2024/02/28 07:53:32;;;;;;;0.20;0.20;;;;;;;8.56;70.12;102182.63;5111479;28;20024;-79
2024/02/28 07:55:58;;;;;;;0.65;0.65;;;;;;;8.60;70.38;102189.75;5106246;28;20027;-79
2024/02/28 07:58:25;;;;;;;0.10;0.10;;;;;;;8.65;70.14;102187.13;5099952;28;20032;-79
2024/02/28 08:00:53;;;;;;;0.47;0.47;;;;;;;8.69;70.29;102184.53;5108180;28;20023;-78
2024/02/28 08:03:19;;;;;;;0.30;0.30;;;;;;;8.74;69.92;102192.50;5109441;28;20023;-78
2024/02/28 08:05:46;;;;;;;1.25;1.17;;;;;;;8.84;70.13;102204.06;5106490;28;20020;-78
2024/02/28 08:08:12;;;;;;;0.47;0.47;;;;;;;8.86;70.08;102207.56;5099773;28;20043;-78
2024/02/28 08:10:38;;;;;;;0.13;0.13;;;;;;;8.93;69.88;102196.19;5099163;28;20040;-78
2024/02/28 08:13:05;;;;;;;2.80;1.55;;;;;;;8.98;69.96;102197.13;5099944;28;20028;-79
2024/02/28 08:15:32;;;;;;;0.20;0.20;;;;;;;9.06;69.81;102203.34;5106879;28;20035;-79
2024/02/28 08:17:58;;;;;;;0.38;0.38;;;;;;;9.12;70.05;102206.91;5102691;28;20059;-79
2024/02/28 08:20:25;;;;;;;0.10;0.10;;;;;;;9.18;69.71;102204.31;5100735;28;20410;-78
2024/02/28 08:22:57;;;;;;;0.77;0.77;;;;;;;9.22;69.45;102216.69;5094227;28;20032;-78
2024/02/28 08:25:23;;;;;;;0.35;0.35;;;;;;;9.28;69.25;102208.81;5092789;28;20394;-77
2024/02/28 08:27:49;;;;;;;0.10;0.10;;;;;;;9.31;69.20;102216.78;5094237;28;20399;-78
2024/02/28 08:30:15;;;;;;;0.20;0.20;;;;;;;9.31;69.19;102221.16;5121178;28;20028;-78
2024/02/28 08:32:42;;;;;;;0.60;0.60;;;;;;;9.38;68.97;102218.59;5120219;28;20533;-80
2024/02/28 08:35:10;;;;;;;0.20;0.20;;;;;;;9.42;68.95;102226.53;5110045;28;20132;-79
2024/02/28 08:37:39;;;;;;;0.28;0.28;;;;;;;9.45;68.79;102223.94;5111221;28;20020;-79
2024/02/28 08:40:06;;;;;;;0.22;0.22;;;;;;;9.51;68.87;102238.06;5105205;28;20062;-80
2024/02/28 08:42:33;;;;;;;1.10;1.10;;;;;;;9.51;68.66;102229.25;5102217;28;20084;-79
2024/02/28 08:45:00;;;;;;;0.77;0.77;;;;;;;9.58;68.59;102220.47;5105817;28;20479;-79
2024/02/28 08:47:27;;;;;;;0.10;0.10;;;;;;;9.59;68.75;102222.25;5098871;28;20028;-79
2024/02/28 08:49:54;;;;;;;0.57;0.57;;;;;;;9.77;68.77;102226.78;5103293;28;20028;-79
2024/02/28 08:52:21;;;;;;;0.35;0.30;;;;;;;9.84;68.76;102223.28;5103443;28;20031;-79
2024/02/28 08:54:48;;;;;;;0.57;0.57;;;;;;;9.92;68.45;102220.69;5103269;28;20111;-78
2024/02/28 08:57:15;;;;;;;0.43;0.43;;;;;;;9.93;68.07;102217.16;5102743;28;20024;-79
2024/02/28 08:59:41;;;;;;;0.50;0.50;;;;;;;9.95;68.05;102215.38;5102721;28;20028;-79
2024/02/28 09:02:08;;;;;;;0.77;0.77;;;;;;;10.03;68.09;102207.47;5102671;28;20036;-80
2024/02/28 09:04:34;;;;;;;0.20;0.20;;;;;;;10.11;68.04;102200.44;5102817;28;20035;-79
2024/02/28 09:07:01;;;;;;;0.63;0.63;;;;;;;10.19;67.75;102203.13;5102187;28;20056;-79
2024/02/28 09:09:30;;;;;;;0.20;0.20;;;;;;;10.26;67.87;102204.03;5103253;28;20406;-80
2024/02/28 09:11:56;;;;;;;0.10;0.10;;;;;;;10.28;68.15;102203.16;5102229;28;20050;-79
2024/02/28 09:14:22;;;;;;;0.13;0.13;;;;;;;10.26;67.73;102210.22;5098532;28;20069;-79
2024/02/28 09:16:48;;;;;;;2.22;1.30;;;;;;;10.26;67.66;102210.22;5104997;28;20051;-78
2024/02/28 09:19:14;;;;;;;0.10;0.10;;;;;;;10.33;67.67;102219.03;5097148;28;20035;-78
2024/02/28 09:21:41;;;;;;;0.40;0.40;;;;;;;10.26;67.53;102226.09;5097182;28;20495;-78
2024/02/28 09:24:07;;;;;;;1.05;1.00;;;;;;;10.27;67.50;102222.59;5097623;28;20038;-78
2024/02/28 09:26:33;;;;;;;0.10;0.10;;;;;;;10.33;67.57;102217.31;5099745;28;20024;-78
2024/02/28 09:28:59;;;;;;;0.10;0.10;;;;;;;10.34;67.42;102213.78;5106052;28;20035;-78
2024/02/28 09:31:25;;;;;;;0.20;0.20;;;;;;;10.41;67.85;102205.88;5097794;28;20055;-78
2024/02/28 09:33:52;;;;;;;0.52;0.52;;;;;;;10.58;67.49;102206.81;5098853;28;20028;-78
2024/02/28 09:36:18;;;;;;;0.95;0.65;;;;;;;10.64;67.15;102219.16;5097690;28;20545;-78
2024/02/28 09:38:44;;;;;;;0.20;0.20;;;;;;;10.72;66.81;102221.84;5097959;28;20506;-78
2024/02/28 09:41:15;;;;;;;0.32;0.32;;;;;;;10.73;67.50;102215.63;5097962;28;20028;-78
2024/02/28 09:43:42;;;;;;;0.20;0.20;;;;;;;10.76;67.67;102224.50;5098017;28;20027;-78
2024/02/28 09:46:11;;;;;;;0.20;0.20;;;;;;;11.02;67.27;102223.63;5097013;28;20282;-78
2024/02/28 09:48:40;;;;;;;0.28;0.28;;;;;;;11.10;66.85;102220.97;5097201;28;20063;-78
2024/02/28 09:51:09;;;;;;;0.85;0.85;;;;;;;11.12;66.78;102228.06;5097825;28;20108;-78
2024/02/28 09:53:35;;;;;;;1.25;1.23;;;;;;;11.20;65.94;102219.22;5098623;28;20106;-79
2024/02/28 09:56:01;;;;;;;0.70;0.70;;;;;;;11.21;66.42;102219.19;5097818;28;20627;-78
2024/02/28 09:58:30;;;;;;;0.30;0.30;;;;;;;11.30;65.96;102213.91;5097743;28;20020;-79
2024/02/28 10:00:59;;;;;;;4.65;1.75;;;;;;;11.34;66.11;102220.09;5106718;28;20055;-78
2024/02/28 10:03:26;;;;;;;1.27;0.85;;;;;;;11.36;66.38;102220.09;5098508;28;20035;-78
2024/02/28 10:05:52;;;;;;;0.20;0.20;;;;;;;11.41;66.29;102218.31;5098306;28;20039;-78
2024/02/28 10:08:18;;;;;;;1.13;1.08;;;;;;;11.38;65.44;102207.72;5098773;28;20398;-78
2024/02/28 10:10:48;;;;;;;0.30;0.30;;;;;;;11.44;65.68;102207.66;5110193;28;20034;-79
2024/02/28 10:13:16;;;;;;;2.40;1.85;;;;;;;11.49;66.11;102203.28;5119378;27;20039;-79
2024/02/28 10:15:42;;;;;;;0.47;0.47;;;;;;;11.52;65.96;102200.59;5119895;28;20077;-79
2024/02/28 10:18:08;;;;;;;0.17;0.17;;;;;;;11.54;65.91;102201.47;5119186;28;20026;-79
2024/02/28 10:20:35;;;;;;;0.30;0.30;;;;;;;11.78;65.74;102204.97;5119066;28;20051;-79
2024/02/28 10:23:05;;;;;;;0.15;0.15;;;;;;;11.87;64.90;102204.03;5119297;28;20036;-79
2024/02/28 10:25:32;;;;;;;0.47;0.47;;;;;;;11.91;64.68;102184.53;5108163;28;20024;-79
2024/02/28 10:28:01;;;;;;;0.65;0.65;;;;;;;12.06;64.95;102191.59;5097858;28;20032;-78
2024/02/28 10:30:28;;;;;;;0.38;0.38;;;;;;;12.03;65.53;102187.19;5106141;28;20024;-79
2024/02/28 10:32:56;;;;;;;1.88;1.27;;;;;;;12.02;64.95;102184.53;5098462;28;20031;-78
2024/02/28 10:35:25;;;;;;;0.30;0.30;;;;;;;12.02;64.64;102184.53;5106617;28;20024;-79
2024/02/28 10:37:53;;;;;;;0.20;0.20;;;;;;;12.14;64.70;102189.78;5097077;28;20572;-79
2024/02/28 10:40:22;;;;;;;0.30;0.30;;;;;;;12.26;64.59;102184.41;5096007;28;20043;-78
2024/02/28 10:42:48;;;;;;;0.10;0.10;;;;;;;12.22;64.19;102195.06;5097235;28;20111;-78
2024/02/28 10:45:19;;;;;;;0.38;0.38;;;;;;;12.33;64.41;102189.69;5097374;28;20032;-78
2024/02/28 10:47:47;;;;;;;0.30;0.30;;;;;;;12.33;64.04;102189.69;5110101;28;20047;-78
2024/02/28 10:50:15;;;;;;;0.10;0.10;;;;;;;12.24;63.09;102196.81;5128880;28;20460;-79
2024/02/28 10:52:46;;;;;;;0.73;0.73;;;;;;;12.37;63.18;102194.09;5126322;28;20414;-80
2024/02/28 10:55:16;;;;;;;0.20;0.20;;;;;;;12.44;63.71;102195.84;5122723;28;20023;-80
2024/02/28 10:57:45;;;;;;;0.30;0.30;;;;;;;12.40;62.87;102194.97;5101918;28;20020;-79
2024/02/28 11:00:13;;;;;;;3.33;1.42;;;;;;;12.43;62.33;102194.06;5109551;28;20113;-80
2024/02/28 11:02:40;;;;;;;1.13;1.10;;;;;;;12.59;62.22;102201.03;5110364;28;20047;-80
2024/02/28 11:05:07;;;;;;;0.10;0.10;;;;;;;12.67;61.93;102194.78;5100828;28;20032;-80
2024/02/28 11:07:33;;;;;;;0.80;0.75;;;;;;;12.76;62.07;102197.38;5100604;28;20509;-79
2024/02/28 11:10:06;;;;;;;2.13;2.03;;;;;;;12.88;61.41;102199.06;5101270;28;20390;-80
2024/02/28 11:12:32;;;;;;;0.30;0.30;;;;;;;12.87;60.92;102192.88;5102633;28;20189;-80
2024/02/28 11:15:01;;;;;;;0.10;0.10;;;;;;;12.92;60.75;102195.47;5107185;28;20062;-80
2024/02/28 11:17:29;;;;;;;0.52;0.40;;;;;;;12.95;61.01;102193.69;5100953;28;20028;-79
2024/02/28 11:19:56;;;;;;;0.20;0.20;;;;;;;12.99;60.81;102189.22;5100467;28;20479;-79
2024/02/28 11:22:22;;;;;;;0.40;0.40;;;;;;;13.05;60.64;102185.63;5100457;28;20103;-79
2024/02/28 11:24:50;;;;;;;0.80;0.80;;;;;;;13.12;60.25;102197.97;5100762;28;20184;-80
2024/02/28 11:27:16;;;;;;;1.30;1.27;;;;;;;13.05;60.27;102197.16;5109412;28;20449;-80
2024/02/28 11:29:45;;;;;;;0.45;0.45;;;;;;;12.97;60.78;102196.31;5100557;28;20054;-80